sensor_id;sensor_type;location;lat;lon;timestamp;pressure;altitude;pressure_sealevel;temperature;humidity
50105;BME280;47690;39.202;-77.198;2023-03-03T00:00:43;99403.72;;;41.51;6.95
50105;BME280;47690;39.202;-77.198;2023-03-03T00:03:18;99403.16;;;41.49;6.50
50105;BME280;47690;39.202;-77.198;2023-03-03T00:05:50;99403.16;;;41.49;6.99
50105;BME280;47690;39.202;-77.198;2023-03-03T00:08:20;99403.97;;;41.50;6.58
50105;BME280;47690;39.202;-77.198;2023-03-03T00:10:51;99414.44;;;41.46;6.54
50105;BME280;47690;39.202;-77.198;2023-03-03T00:13:23;99416.09;;;41.47;6.23
50105;BME280;47690;39.202;-77.198;2023-03-03T00:16:10;99428.75;;;41.64;6.20
50105;BME280;47690;39.202;-77.198;2023-03-03T00:18:45;99427.84;;;41.58;6.71
50105;BME280;47690;39.202;-77.198;2023-03-03T00:21:26;99428.28;;;41.50;6.48
50105;BME280;47690;39.202;-77.198;2023-03-03T00:24:19;99441.34;;;41.75;6.01
50105;BME280;47690;39.202;-77.198;2023-03-03T00:26:54;99446.53;;;41.60;6.13
50105;BME280;47690;39.202;-77.198;2023-03-03T00:29:35;99453.25;;;41.57;6.35
50105;BME280;47690;39.202;-77.198;2023-03-03T00:32:20;99448.59;;;41.53;6.04
50105;BME280;47690;39.202;-77.198;2023-03-03T00:34:54;99459.41;;;41.35;6.51
50105;BME280;47690;39.202;-77.198;2023-03-03T00:37:33;99464.25;;;41.50;6.16
50105;BME280;47690;39.202;-77.198;2023-03-03T00:42:57;99469.66;;;41.50;6.39
50105;BME280;47690;39.202;-77.198;2023-03-03T00:45:33;99481.00;;;41.53;6.26
50105;BME280;47690;39.202;-77.198;2023-03-03T00:48:23;99493.44;;;42.10;5.98
50105;BME280;47690;39.202;-77.198;2023-03-03T00:50:59;99482.09;;;41.69;6.20
50105;BME280;47690;39.202;-77.198;2023-03-03T00:53:30;99479.94;;;41.54;6.19
50105;BME280;47690;39.202;-77.198;2023-03-03T00:56:00;99477.84;;;41.39;6.45
50105;BME280;47690;39.202;-77.198;2023-03-03T00:58:31;99482.75;;;41.24;6.67
50105;BME280;47690;39.202;-77.198;2023-03-03T01:01:04;99492.75;;;41.24;6.76
50105;BME280;47690;39.202;-77.198;2023-03-03T01:03:42;99494.72;;;41.29;6.64
50105;BME280;47690;39.202;-77.198;2023-03-03T01:06:13;99495.47;;;41.24;6.71
50105;BME280;47690;39.202;-77.198;2023-03-03T01:08:44;99488.44;;;41.80;6.30
50105;BME280;47690;39.202;-77.198;2023-03-03T01:11:23;99513.78;;;41.56;6.38
50105;BME280;47690;39.202;-77.198;2023-03-03T01:13:56;99502.88;;;41.17;6.84
50105;BME280;47690;39.202;-77.198;2023-03-03T01:16:29;99493.53;;;41.07;6.79
50105;BME280;47690;39.202;-77.198;2023-03-03T01:18:59;99495.78;;;40.81;6.70
50105;BME280;47690;39.202;-77.198;2023-03-03T01:21:30;99505.41;;;40.77;6.90
50105;BME280;47690;39.202;-77.198;2023-03-03T01:24:01;99513.38;;;40.84;6.81
50105;BME280;47690;39.202;-77.198;2023-03-03T01:26:32;99513.53;;;40.65;6.75
50105;BME280;47690;39.202;-77.198;2023-03-03T01:29:02;99524.56;;;40.64;6.57
50105;BME280;47690;39.202;-77.198;2023-03-03T01:31:32;99530.31;;;40.67;6.45
50105;BME280;47690;39.202;-77.198;2023-03-03T01:34:02;99549.50;;;40.54;6.83
50105;BME280;47690;39.202;-77.198;2023-03-03T01:36:34;99541.78;;;40.46;6.77
50105;BME280;47690;39.202;-77.198;2023-03-03T01:39:06;99553.41;;;40.34;6.81
50105;BME280;47690;39.202;-77.198;2023-03-03T01:41:36;99566.31;;;40.20;6.87
50105;BME280;47690;39.202;-77.198;2023-03-03T01:44:05;99566.78;;;40.17;7.01
50105;BME280;47690;39.202;-77.198;2023-03-03T01:46:47;99559.72;;;40.28;6.56
50105;BME280;47690;39.202;-77.198;2023-03-03T01:49:30;99565.13;;;41.90;5.84
50105;BME280;47690;39.202;-77.198;2023-03-03T01:52:20;99570.56;;;40.69;6.78
50105;BME280;47690;39.202;-77.198;2023-03-03T01:55:00;99581.56;;;40.38;6.83
50105;BME280;47690;39.202;-77.198;2023-03-03T01:57:34;99577.72;;;40.10;7.01
50105;BME280;47690;39.202;-77.198;2023-03-03T02:00:06;99573.25;;;40.04;7.04
50105;BME280;47690;39.202;-77.198;2023-03-03T02:02:40;99586.34;;;39.88;7.12
50105;BME280;47690;39.202;-77.198;2023-03-03T02:05:12;99590.56;;;39.84;7.14
50105;BME280;47690;39.202;-77.198;2023-03-03T02:07:44;99588.69;;;39.73;6.90
50105;BME280;47690;39.202;-77.198;2023-03-03T02:10:17;99605.09;;;39.71;7.10
50105;BME280;47690;39.202;-77.198;2023-03-03T02:12:55;99611.41;;;39.77;7.34
50105;BME280;47690;39.202;-77.198;2023-03-03T02:15:30;99603.09;;;39.67;7.08
50105;BME280;47690;39.202;-77.198;2023-03-03T02:18:13;99600.22;;;40.04;6.66
50105;BME280;47690;39.202;-77.198;2023-03-03T02:20:57;99600.66;;;40.01;7.12
50105;BME280;47690;39.202;-77.198;2023-03-03T02:26:12;99590.19;;;39.69;7.28
50105;BME280;47690;39.202;-77.198;2023-03-03T02:28:43;99600.75;;;40.66;6.50
50105;BME280;47690;39.202;-77.198;2023-03-03T02:31:15;99610.41;;;40.91;6.73
50105;BME280;47690;39.202;-77.198;2023-03-03T02:33:48;99618.25;;;40.15;6.89
50105;BME280;47690;39.202;-77.198;2023-03-03T02:36:21;99605.78;;;39.67;7.14
50105;BME280;47690;39.202;-77.198;2023-03-03T02:42:15;99613.31;;;39.77;6.85
50105;BME280;47690;39.202;-77.198;2023-03-03T02:44:50;99609.06;;;39.57;6.98
50105;BME280;47690;39.202;-77.198;2023-03-03T02:47:19;99616.31;;;39.26;7.11
50105;BME280;47690;39.202;-77.198;2023-03-03T02:49:48;99612.31;;;39.16;7.38
50105;BME280;47690;39.202;-77.198;2023-03-03T02:53:04;99604.28;;;39.28;7.26
50105;BME280;47690;39.202;-77.198;2023-03-03T02:55:34;99609.84;;;38.96;7.21
50105;BME280;47690;39.202;-77.198;2023-03-03T02:58:37;99605.03;;;39.17;7.44
50105;BME280;47690;39.202;-77.198;2023-03-03T03:01:31;99605.47;;;39.02;7.07
50105;BME280;47690;39.202;-77.198;2023-03-03T03:04:13;99619.19;;;38.93;7.26
50105;BME280;47690;39.202;-77.198;2023-03-03T03:06:46;99622.19;;;38.85;7.48
50105;BME280;47690;39.202;-77.198;2023-03-03T03:09:20;99630.94;;;38.80;7.45
50105;BME280;47690;39.202;-77.198;2023-03-03T03:11:55;99639.19;;;38.86;7.40
50105;BME280;47690;39.202;-77.198;2023-03-03T03:14:30;99638.34;;;38.85;7.35
50105;BME280;47690;39.202;-77.198;2023-03-03T03:17:00;99628.09;;;38.75;7.15
50105;BME280;47690;39.202;-77.198;2023-03-03T03:19:30;99632.31;;;38.71;7.56
50105;BME280;47690;39.202;-77.198;2023-03-03T03:22:02;99630.66;;;38.70;7.04
50105;BME280;47690;39.202;-77.198;2023-03-03T03:24:34;99622.53;;;38.58;7.55
50105;BME280;47690;39.202;-77.198;2023-03-03T03:27:07;99625.06;;;38.53;7.44
50105;BME280;47690;39.202;-77.198;2023-03-03T03:29:36;99619.38;;;38.61;7.44
50105;BME280;47690;39.202;-77.198;2023-03-03T03:32:07;99622.38;;;38.53;7.52
50105;BME280;47690;39.202;-77.198;2023-03-03T03:34:37;99626.25;;;38.57;7.29
50105;BME280;47690;39.202;-77.198;2023-03-03T03:37:06;99630.81;;;38.57;7.60
50105;BME280;47690;39.202;-77.198;2023-03-03T03:39:38;99628.59;;;38.47;7.50
50105;BME280;47690;39.202;-77.198;2023-03-03T03:42:09;99617.19;;;38.51;7.63
50105;BME280;47690;39.202;-77.198;2023-03-03T03:44:40;99628.66;;;38.65;7.55
50105;BME280;47690;39.202;-77.198;2023-03-03T03:47:10;99626.63;;;38.61;7.41
50105;BME280;47690;39.202;-77.198;2023-03-03T03:49:40;99622.53;;;38.58;7.63
50105;BME280;47690;39.202;-77.198;2023-03-03T03:52:09;99635.59;;;38.55;7.60
50105;BME280;47690;39.202;-77.198;2023-03-03T03:54:38;99650.91;;;38.54;7.44
50105;BME280;47690;39.202;-77.198;2023-03-03T03:57:08;99639.31;;;39.40;7.12
50105;BME280;47690;39.202;-77.198;2023-03-03T03:59:38;99645.31;;;38.56;7.41
50105;BME280;47690;39.202;-77.198;2023-03-03T04:02:08;99647.34;;;38.60;7.25
50105;BME280;47690;39.202;-77.198;2023-03-03T04:04:38;99638.09;;;38.49;7.64
50105;BME280;47690;39.202;-77.198;2023-03-03T04:07:08;99645.13;;;38.32;7.41
50105;BME280;47690;39.202;-77.198;2023-03-03T04:09:38;99653.97;;;38.14;7.65
50105;BME280;47690;39.202;-77.198;2023-03-03T04:12:09;99649.19;;;38.16;7.68
50105;BME280;47690;39.202;-77.198;2023-03-03T04:14:39;99663.38;;;37.97;7.44
50105;BME280;47690;39.202;-77.198;2023-03-03T04:17:17;99649.91;;;38.04;7.31
50105;BME280;47690;39.202;-77.198;2023-03-03T04:19:51;99642.53;;;37.93;7.60
50105;BME280;47690;39.202;-77.198;2023-03-03T04:22:22;99642.91;;;37.96;7.49
50105;BME280;47690;39.202;-77.198;2023-03-03T04:24:52;99650.28;;;38.08;7.66
50105;BME280;47690;39.202;-77.198;2023-03-03T04:27:26;99655.00;;;37.87;7.60
50105;BME280;47690;39.202;-77.198;2023-03-03T04:29:59;99656.84;;;37.87;7.63
50105;BME280;47690;39.202;-77.198;2023-03-03T04:32:30;99670.81;;;37.70;7.75
50105;BME280;47690;39.202;-77.198;2023-03-03T04:35:03;99688.59;;;37.64;7.72
50105;BME280;47690;39.202;-77.198;2023-03-03T04:37:38;99691.13;;;37.59;7.64
50105;BME280;47690;39.202;-77.198;2023-03-03T04:40:09;99696.72;;;37.51;7.54
50105;BME280;47690;39.202;-77.198;2023-03-03T04:42:42;99684.97;;;37.45;7.78
50105;BME280;47690;39.202;-77.198;2023-03-03T04:45:13;99687.19;;;37.62;7.95
50105;BME280;47690;39.202;-77.198;2023-03-03T04:47:45;99696.16;;;37.42;7.61
50105;BME280;47690;39.202;-77.198;2023-03-03T04:50:14;99692.88;;;37.33;8.03
50105;BME280;47690;39.202;-77.198;2023-03-03T04:52:49;99686.34;;;38.25;7.26
50105;BME280;47690;39.202;-77.198;2023-03-03T04:55:19;99696.69;;;38.47;7.04
50105;BME280;47690;39.202;-77.198;2023-03-03T04:57:48;99710.19;;;37.44;7.72
50105;BME280;47690;39.202;-77.198;2023-03-03T05:00:19;99729.72;;;37.19;8.11
50105;BME280;47690;39.202;-77.198;2023-03-03T05:02:50;99739.63;;;37.12;7.79
50105;BME280;47690;39.202;-77.198;2023-03-03T05:05:20;99741.00;;;37.28;7.85
50105;BME280;47690;39.202;-77.198;2023-03-03T05:07:50;99737.31;;;37.29;8.07
50105;BME280;47690;39.202;-77.198;2023-03-03T05:10:19;99738.81;;;37.18;7.88
50105;BME280;47690;39.202;-77.198;2023-03-03T05:12:50;99739.41;;;37.07;7.76
50105;BME280;47690;39.202;-77.198;2023-03-03T05:15:21;99743.16;;;36.92;8.07
50105;BME280;47690;39.202;-77.198;2023-03-03T05:17:51;99740.28;;;36.94;8.47
50105;BME280;47690;39.202;-77.198;2023-03-03T05:20:26;99732.03;;;36.88;8.40
50105;BME280;47690;39.202;-77.198;2023-03-03T05:22:57;99737.97;;;37.04;8.32
50105;BME280;47690;39.202;-77.198;2023-03-03T05:25:29;99737.00;;;36.78;7.97
50105;BME280;47690;39.202;-77.198;2023-03-03T05:28:00;99735.97;;;36.72;8.55
50105;BME280;47690;39.202;-77.198;2023-03-03T05:30:30;99739.47;;;36.53;8.32
50105;BME280;47690;39.202;-77.198;2023-03-03T05:33:00;99741.13;;;36.40;8.62
50105;BME280;47690;39.202;-77.198;2023-03-03T05:35:31;99730.41;;;36.33;8.81
50105;BME280;47690;39.202;-77.198;2023-03-03T05:38:01;99730.63;;;36.32;8.57
50105;BME280;47690;39.202;-77.198;2023-03-03T05:40:33;99745.88;;;36.31;8.61
50105;BME280;47690;39.202;-77.198;2023-03-03T05:43:04;99751.44;;;36.50;8.19
50105;BME280;47690;39.202;-77.198;2023-03-03T05:45:36;99750.19;;;36.46;8.28
50105;BME280;47690;39.202;-77.198;2023-03-03T05:48:06;99758.69;;;36.36;8.22
50105;BME280;47690;39.202;-77.198;2023-03-03T05:50:38;99750.00;;;36.41;8.72
50105;BME280;47690;39.202;-77.198;2023-03-03T05:53:08;99748.78;;;36.70;8.00
50105;BME280;47690;39.202;-77.198;2023-03-03T05:55:38;99761.56;;;36.82;8.16
50105;BME280;47690;39.202;-77.198;2023-03-03T05:58:08;99777.19;;;37.05;7.75
50105;BME280;47690;39.202;-77.198;2023-03-03T06:00:37;99775.19;;;36.80;7.96
50105;BME280;47690;39.202;-77.198;2023-03-03T06:03:09;99781.78;;;36.57;8.07
50105;BME280;47690;39.202;-77.198;2023-03-03T06:05:39;99798.72;;;36.65;8.05
50105;BME280;47690;39.202;-77.198;2023-03-03T06:08:11;99801.59;;;36.56;8.17
50105;BME280;47690;39.202;-77.198;2023-03-03T06:10:45;99820.38;;;36.76;8.35
50105;BME280;47690;39.202;-77.198;2023-03-03T06:13:17;99824.72;;;36.84;8.38
50105;BME280;47690;39.202;-77.198;2023-03-03T06:15:47;99818.53;;;36.70;8.12
50105;BME280;47690;39.202;-77.198;2023-03-03T06:18:17;99825.53;;;36.71;8.11
50105;BME280;47690;39.202;-77.198;2023-03-03T06:20:51;99831.72;;;36.92;7.86
50105;BME280;47690;39.202;-77.198;2023-03-03T06:23:21;99828.16;;;37.39;7.86
50105;BME280;47690;39.202;-77.198;2023-03-03T06:25:51;99837.09;;;36.85;8.21
50105;BME280;47690;39.202;-77.198;2023-03-03T06:28:22;99844.88;;;36.53;8.63
50105;BME280;47690;39.202;-77.198;2023-03-03T06:30:58;99841.22;;;36.81;8.37
50105;BME280;47690;39.202;-77.198;2023-03-03T06:33:31;99847.56;;;36.53;8.58
50105;BME280;47690;39.202;-77.198;2023-03-03T06:36:02;99853.41;;;36.63;7.97
50105;BME280;47690;39.202;-77.198;2023-03-03T06:38:33;99853.97;;;36.52;8.14
50105;BME280;47690;39.202;-77.198;2023-03-03T06:41:02;99860.16;;;36.46;8.42
50105;BME280;47690;39.202;-77.198;2023-03-03T06:43:37;99860.97;;;36.53;8.59
50105;BME280;47690;39.202;-77.198;2023-03-03T06:46:06;99859.75;;;36.49;8.44
50105;BME280;47690;39.202;-77.198;2023-03-03T06:48:37;99859.13;;;36.47;8.38
50105;BME280;47690;39.202;-77.198;2023-03-03T06:54:01;99851.13;;;36.67;8.17
50105;BME280;47690;39.202;-77.198;2023-03-03T06:56:34;99852.22;;;37.79;7.25
50105;BME280;47690;39.202;-77.198;2023-03-03T06:59:17;99868.88;;;37.02;8.16
50105;BME280;47690;39.202;-77.198;2023-03-03T07:01:48;99870.72;;;37.01;8.04
50105;BME280;47690;39.202;-77.198;2023-03-03T07:06:48;99858.34;;;36.94;7.94
50105;BME280;47690;39.202;-77.198;2023-03-03T07:09:29;99839.97;;;37.17;8.08
50105;BME280;47690;39.202;-77.198;2023-03-03T07:12:09;99838.75;;;36.80;8.28
50105;BME280;47690;39.202;-77.198;2023-03-03T07:15:28;99842.88;;;36.82;8.17
50105;BME280;47690;39.202;-77.198;2023-03-03T07:17:45;99853.59;;;36.69;8.58
50105;BME280;47690;39.202;-77.198;2023-03-03T07:20:24;99849.28;;;36.61;8.27
50105;BME280;47690;39.202;-77.198;2023-03-03T07:22:59;99847.16;;;36.49;8.09
50105;BME280;47690;39.202;-77.198;2023-03-03T07:25:33;99843.44;;;36.37;8.43
50105;BME280;47690;39.202;-77.198;2023-03-03T07:28:38;99860.13;;;37.54;7.34
50105;BME280;47690;39.202;-77.198;2023-03-03T07:31:36;99854.84;;;36.80;7.98
50105;BME280;47690;39.202;-77.198;2023-03-03T07:34:37;99849.69;;;36.65;7.80
50105;BME280;47690;39.202;-77.198;2023-03-03T07:39:51;99841.66;;;36.02;8.30
50105;BME280;47690;39.202;-77.198;2023-03-03T07:42:38;99834.09;;;36.13;8.50
50105;BME280;47690;39.202;-77.198;2023-03-03T07:45:27;99829.94;;;36.03;8.45
50105;BME280;47690;39.202;-77.198;2023-03-03T07:48:18;99838.41;;;36.07;8.32
50105;BME280;47690;39.202;-77.198;2023-03-03T07:50:52;99842.44;;;35.89;8.34
50105;BME280;47690;39.202;-77.198;2023-03-03T07:53:26;99857.03;;;35.73;8.28
50105;BME280;47690;39.202;-77.198;2023-03-03T07:55:58;99861.38;;;35.74;8.52
50105;BME280;47690;39.202;-77.198;2023-03-03T07:58:39;99852.38;;;35.95;8.37
50105;BME280;47690;39.202;-77.198;2023-03-03T08:03:59;99853.59;;;35.51;8.21
50105;BME280;47690;39.202;-77.198;2023-03-03T08:06:49;99854.78;;;35.41;8.95
50105;BME280;47690;39.202;-77.198;2023-03-03T08:09:48;99870.69;;;35.85;8.59
50105;BME280;47690;39.202;-77.198;2023-03-03T08:15:20;99891.09;;;35.86;8.64
50105;BME280;47690;39.202;-77.198;2023-03-03T08:17:53;99893.72;;;35.44;8.49
50105;BME280;47690;39.202;-77.198;2023-03-03T08:20:46;99882.28;;;35.99;8.21
50105;BME280;47690;39.202;-77.198;2023-03-03T08:23:18;99872.97;;;36.50;8.12
50105;BME280;47690;39.202;-77.198;2023-03-03T08:25:49;99861.81;;;36.47;8.09
50105;BME280;47690;39.202;-77.198;2023-03-03T08:28:21;99866.13;;;36.41;8.06
50105;BME280;47690;39.202;-77.198;2023-03-03T08:30:51;99872.75;;;35.54;8.22
50105;BME280;47690;39.202;-77.198;2023-03-03T08:33:43;99883.84;;;35.16;8.67
50105;BME280;47690;39.202;-77.198;2023-03-03T08:36:16;99879.97;;;34.97;8.77
50105;BME280;47690;39.202;-77.198;2023-03-03T08:38:46;99875.81;;;34.94;8.73
50105;BME280;47690;39.202;-77.198;2023-03-03T08:41:17;99876.47;;;35.25;8.31
50105;BME280;47690;39.202;-77.198;2023-03-03T08:43:46;99867.03;;;35.29;8.65
50105;BME280;47690;39.202;-77.198;2023-03-03T08:46:17;99860.84;;;35.28;8.46
50105;BME280;47690;39.202;-77.198;2023-03-03T08:48:46;99869.09;;;35.27;8.35
50105;BME280;47690;39.202;-77.198;2023-03-03T08:51:17;99874.31;;;35.07;8.87
50105;BME280;47690;39.202;-77.198;2023-03-03T08:53:46;99889.44;;;34.99;8.66
50105;BME280;47690;39.202;-77.198;2023-03-03T08:56:17;99887.31;;;35.17;8.60
50105;BME280;47690;39.202;-77.198;2023-03-03T08:58:47;99882.78;;;35.10;8.86
50105;BME280;47690;39.202;-77.198;2023-03-03T09:01:31;99885.94;;;34.99;8.62
50105;BME280;47690;39.202;-77.198;2023-03-03T09:04:01;99903.16;;;35.40;8.55
50105;BME280;47690;39.202;-77.198;2023-03-03T09:06:31;99908.88;;;35.59;8.25
50105;BME280;47690;39.202;-77.198;2023-03-03T09:09:04;99906.28;;;34.93;8.47
50105;BME280;47690;39.202;-77.198;2023-03-03T09:11:36;99910.03;;;35.21;8.60
50105;BME280;47690;39.202;-77.198;2023-03-03T09:14:10;99899.47;;;35.12;8.63
50105;BME280;47690;39.202;-77.198;2023-03-03T09:16:49;99905.00;;;34.89;8.95
50105;BME280;47690;39.202;-77.198;2023-03-03T09:19:27;99902.63;;;35.01;8.97
50105;BME280;47690;39.202;-77.198;2023-03-03T09:22:31;99919.59;;;35.08;8.46
50105;BME280;47690;39.202;-77.198;2023-03-03T09:25:17;99921.84;;;35.33;8.52
50105;BME280;47690;39.202;-77.198;2023-03-03T09:27:52;99928.50;;;34.94;8.60
50105;BME280;47690;39.202;-77.198;2023-03-03T09:32:59;99907.16;;;34.79;8.72
50105;BME280;47690;39.202;-77.198;2023-03-03T09:35:36;99915.25;;;34.85;8.77
50105;BME280;47690;39.202;-77.198;2023-03-03T09:38:25;99925.78;;;35.09;8.66
50105;BME280;47690;39.202;-77.198;2023-03-03T09:44:08;99923.59;;;35.19;8.59
50105;BME280;47690;39.202;-77.198;2023-03-03T09:54:49;99904.13;;;35.96;8.08
50105;BME280;47690;39.202;-77.198;2023-03-03T09:57:36;99892.75;;;35.23;8.65
50105;BME280;47690;39.202;-77.198;2023-03-03T10:12:19;99907.00;;;36.43;7.48
50105;BME280;47690;39.202;-77.198;2023-03-03T10:17:49;99921.25;;;35.66;8.54
50105;BME280;47690;39.202;-77.198;2023-03-03T10:23:40;99971.91;;;35.11;8.53
50105;BME280;47690;39.202;-77.198;2023-03-03T10:26:25;99967.41;;;35.11;8.55
50105;BME280;47690;39.202;-77.198;2023-03-03T10:29:19;99969.22;;;35.11;8.53
50105;BME280;47690;39.202;-77.198;2023-03-03T10:43:35;99959.94;;;35.07;8.61
50105;BME280;47690;39.202;-77.198;2023-03-03T10:49:36;99983.06;;;35.14;8.34
50105;BME280;47690;39.202;-77.198;2023-03-03T10:58:17;99971.91;;;35.11;8.26
50105;BME280;47690;39.202;-77.198;2023-03-03T11:01:24;99977.06;;;35.12;8.46
50105;BME280;47690;39.202;-77.198;2023-03-03T11:10:00;99948.09;;;35.01;8.48
50105;BME280;47690;39.202;-77.198;2023-03-03T11:13:11;99920.03;;;35.12;8.49
50105;BME280;47690;39.202;-77.198;2023-03-03T11:22:02;99905.38;;;34.86;8.65
50105;BME280;47690;39.202;-77.198;2023-03-03T11:36:08;100008.06;;;35.50;8.24
50105;BME280;47690;39.202;-77.198;2023-03-03T11:38:44;99997.31;;;35.44;8.26
50105;BME280;47690;39.202;-77.198;2023-03-03T11:45:10;99992.88;;;34.70;8.70
50105;BME280;47690;39.202;-77.198;2023-03-03T11:47:42;99995.59;;;34.92;8.62
50105;BME280;47690;39.202;-77.198;2023-03-03T11:56:07;100002.94;;;34.38;8.49
50105;BME280;47690;39.202;-77.198;2023-03-03T11:59:15;99983.38;;;34.53;8.68
50105;BME280;47690;39.202;-77.198;2023-03-03T12:06:01;99996.59;;;34.39;8.87
50105;BME280;47690;39.202;-77.198;2023-03-03T12:11:02;100010.34;;;34.88;8.38
50105;BME280;47690;39.202;-77.198;2023-03-03T12:17:03;100026.44;;;35.32;8.19
50105;BME280;47690;39.202;-77.198;2023-03-03T12:19:57;100030.97;;;34.57;8.66
50105;BME280;47690;39.202;-77.198;2023-03-03T12:22:57;100036.41;;;35.38;8.21
50105;BME280;47690;39.202;-77.198;2023-03-03T12:25:39;100061.88;;;34.60;8.71
50105;BME280;47690;39.202;-77.198;2023-03-03T12:28:22;100084.06;;;34.45;8.60
50105;BME280;47690;39.202;-77.198;2023-03-03T12:33:51;100087.13;;;34.72;8.29
50105;BME280;47690;39.202;-77.198;2023-03-03T12:39:25;100115.97;;;34.47;8.92
50105;BME280;47690;39.202;-77.198;2023-03-03T12:51:00;100105.28;;;34.62;8.73
50105;BME280;47690;39.202;-77.198;2023-03-03T12:53:59;100104.56;;;34.83;8.63
50105;BME280;47690;39.202;-77.198;2023-03-03T13:10:55;100168.66;;;34.77;8.88
50105;BME280;47690;39.202;-77.198;2023-03-03T13:16:11;100178.44;;;34.69;8.59
50105;BME280;47690;39.202;-77.198;2023-03-03T13:18:54;100189.13;;;34.69;8.62
50105;BME280;47690;39.202;-77.198;2023-03-03T13:27:14;100179.09;;;34.71;8.80
50105;BME280;47690;39.202;-77.198;2023-03-03T13:30:14;100201.31;;;34.87;8.75
50105;BME280;47690;39.202;-77.198;2023-03-03T13:32:59;100213.19;;;34.69;8.76
50105;BME280;47690;39.202;-77.198;2023-03-03T13:38:58;100213.63;;;35.11;8.33
50105;BME280;47690;39.202;-77.198;2023-03-03T13:44:21;100217.81;;;34.76;8.47
50105;BME280;47690;39.202;-77.198;2023-03-03T13:47:05;100229.63;;;34.66;8.43
50105;BME280;47690;39.202;-77.198;2023-03-03T13:52:25;100259.66;;;35.22;8.71
50105;BME280;47690;39.202;-77.198;2023-03-03T13:55:08;100266.63;;;34.78;8.62
50105;BME280;47690;39.202;-77.198;2023-03-03T14:03:38;100261.03;;;35.48;8.26
50105;BME280;47690;39.202;-77.198;2023-03-03T14:06:18;100250.31;;;35.85;7.82
50105;BME280;47690;39.202;-77.198;2023-03-03T14:09:05;100247.94;;;35.08;8.13
50105;BME280;47690;39.202;-77.198;2023-03-03T14:14:44;100260.28;;;35.39;8.40
50105;BME280;47690;39.202;-77.198;2023-03-03T14:20:27;100266.34;;;34.87;8.46
50105;BME280;47690;39.202;-77.198;2023-03-03T14:23:18;100254.00;;;35.01;8.57
50105;BME280;47690;39.202;-77.198;2023-03-03T14:25:55;100251.88;;;34.82;8.68
50105;BME280;47690;39.202;-77.198;2023-03-03T14:28:50;100258.91;;;34.98;8.17
50105;BME280;47690;39.202;-77.198;2023-03-03T14:31:41;100281.66;;;34.94;8.61
50105;BME280;47690;39.202;-77.198;2023-03-03T14:34:38;100283.28;;;35.03;8.63
50105;BME280;47690;39.202;-77.198;2023-03-03T14:37:21;100317.22;;;35.03;8.55
50105;BME280;47690;39.202;-77.198;2023-03-03T14:40:20;100313.38;;;35.20;8.47
50105;BME280;47690;39.202;-77.198;2023-03-03T14:48:27;100330.81;;;35.31;8.31
50105;BME280;47690;39.202;-77.198;2023-03-03T14:51:22;100311.69;;;35.49;8.05
50105;BME280;47690;39.202;-77.198;2023-03-03T14:53:53;100301.56;;;35.30;8.31
50105;BME280;47690;39.202;-77.198;2023-03-03T14:56:35;100284.94;;;35.19;8.45
50105;BME280;47690;39.202;-77.198;2023-03-03T14:59:18;100270.91;;;35.17;8.39
50105;BME280;47690;39.202;-77.198;2023-03-03T15:10:47;100254.75;;;36.14;8.17
50105;BME280;47690;39.202;-77.198;2023-03-03T15:13:33;100266.63;;;35.53;8.21
50105;BME280;47690;39.202;-77.198;2023-03-03T15:16:19;100250.50;;;36.27;8.04
50105;BME280;47690;39.202;-77.198;2023-03-03T15:22:53;100225.66;;;35.37;8.24
50105;BME280;47690;39.202;-77.198;2023-03-03T15:25:32;100217.69;;;35.59;8.34
50105;BME280;47690;39.202;-77.198;2023-03-03T15:31:10;100189.25;;;35.43;8.42
50105;BME280;47690;39.202;-77.198;2023-03-03T15:34:05;100189.81;;;35.38;8.26
50105;BME280;47690;39.202;-77.198;2023-03-03T15:45:32;100129.44;;;36.01;8.12
50105;BME280;47690;39.202;-77.198;2023-03-03T15:54:20;100122.94;;;36.39;7.61
50105;BME280;47690;39.202;-77.198;2023-03-03T16:05:34;100125.41;;;34.88;8.58
50105;BME280;47690;39.202;-77.198;2023-03-03T16:08:39;100116.00;;;34.77;8.60
50105;BME280;47690;39.202;-77.198;2023-03-03T16:11:13;100097.84;;;34.57;8.63
50105;BME280;47690;39.202;-77.198;2023-03-03T16:16:49;100076.06;;;34.45;8.89
50105;BME280;47690;39.202;-77.198;2023-03-03T16:19:41;100075.13;;;34.38;8.75
50105;BME280;47690;39.202;-77.198;2023-03-03T16:22:27;100065.72;;;34.27;8.87
50105;BME280;47690;39.202;-77.198;2023-03-03T16:27:49;100059.72;;;34.10;9.02
50105;BME280;47690;39.202;-77.198;2023-03-03T16:30:24;100045.59;;;34.01;8.86
50105;BME280;47690;39.202;-77.198;2023-03-03T16:33:14;100029.53;;;34.10;8.83
50105;BME280;47690;39.202;-77.198;2023-03-03T16:36:01;100025.09;;;34.17;8.99
50105;BME280;47690;39.202;-77.198;2023-03-03T16:38:41;100002.28;;;35.25;8.27
50105;BME280;47690;39.202;-77.198;2023-03-03T16:44:36;100006.22;;;34.18;8.98
50105;BME280;47690;39.202;-77.198;2023-03-03T16:47:25;100002.75;;;35.07;8.39
50105;BME280;47690;39.202;-77.198;2023-03-03T16:53:17;100004.50;;;35.65;7.82
50105;BME280;47690;39.202;-77.198;2023-03-03T17:08:55;99958.63;;;34.44;8.86
50105;BME280;47690;39.202;-77.198;2023-03-03T17:20:34;99944.28;;;34.15;9.42
50105;BME280;47690;39.202;-77.198;2023-03-03T17:25:58;99901.50;;;34.00;9.28
50105;BME280;47690;39.202;-77.198;2023-03-03T17:28:45;99898.94;;;33.91;9.38
50105;BME280;47690;39.202;-77.198;2023-03-03T17:40:10;99929.91;;;33.86;9.73
50105;BME280;47690;39.202;-77.198;2023-03-03T17:42:42;99924.47;;;33.79;9.53
50105;BME280;47690;39.202;-77.198;2023-03-03T17:45:17;99912.69;;;33.73;9.52
50105;BME280;47690;39.202;-77.198;2023-03-03T17:48:12;99906.78;;;33.93;9.54
50105;BME280;47690;39.202;-77.198;2023-03-03T18:11:07;99878.84;;;33.96;9.46
50105;BME280;47690;39.202;-77.198;2023-03-03T18:17:06;99941.97;;;34.12;9.70
50105;BME280;47690;39.202;-77.198;2023-03-03T18:22:47;99937.44;;;34.27;9.85
50105;BME280;47690;39.202;-77.198;2023-03-03T18:25:23;99914.97;;;34.22;9.62
50105;BME280;47690;39.202;-77.198;2023-03-03T18:28:36;99906.22;;;35.37;9.17
50105;BME280;47690;39.202;-77.198;2023-03-03T18:31:26;99908.63;;;34.44;9.62
50105;BME280;47690;39.202;-77.198;2023-03-03T18:34:28;99902.38;;;34.37;9.83